Op dit moment wordt er hard gewerkt aan deze versie van Weerstation-Wijk.nl
Het kan zijn dat er dingen nog niet helemaal kloppen of goed werken.
Sneeuw/IJzel/Bevriezing van: 17-01-2021 06:00 tot: 09:00 waarschuwing voor: Sneeuw/IJzel/Bevriezing niveau: Geel info button
Door sneeuwresten is het lokaal glad.Kans op gladheid.Alle verkeersdeelnemers kunnen hinder ondervinden.Pas uw rijgedrag aan.Volg weerberichten en waarschuwingen.


Weerstation-Wijk.nl. Voor het weer van Wijk bij Duurstede en omstreken



Webcam Weerstation-Wijk Meer informatie Webcam Weerstation-Wijk


waarschuwing voor winterse neerslag Meer informatie rain snow radar


Bezoek ook deze websites:

Template documentation
and downloads

And another site



METAR rapporten vliegvelden

   
EHVK - Volkel Rnlafb, Netherlands
Afstand tot: ZW 18 km
Gewijzigd: Jan 17 2021 6:55 am
Wat regen mogelijk, Grotendeels bewolkt  
Wat regen mogelijk, Grotendeels bewolkt  
   Wind: ZZW 9.3 km/h
Wind: ZZW 9.3 km/h
Temperatuur: 0°C
Voelt als: -3°C
Dauwpunt: 0°C
Vochtigheid: 100%
Barometer: 1014 hPa
Bewolking: Grotendeels bewolkt
Zicht: 1 km
Bewolking: Grotendeels bewolkt 100 ft,
Licht bewolkt 1500 ft
EHVK 170555Z AUTO 21005KT 170V240 1300 -RA BKN001 FEW015CB 00/00 Q1014 RERA REDZ RED
EDLV - Niederrhein, Germany
Afstand tot: ZO 25 km
Gewijzigd: Jan 17 2021 6:50 am
Nevel, Grotendeels bewolkt  
Nevel, Grotendeels bewolkt  
   Wind: Zuiden 7.4 km/h
Wind: Zuiden 7.4 km/h
Temperatuur: 0°C
Voelt als: -3°C
Dauwpunt: -1°C
Vochtigheid: 93%
Barometer: 1015 hPa
Bewolking: Grotendeels bewolkt
Zicht: 4 km
Bewolking: Grotendeels bewolkt 400 ft
EDLV 170550Z 17004KT 3600 BR BKN004 00/M01 Q1015
EHDL - Deelen Rnlafb, Netherlands
Afstand tot: N 35 km
Gewijzigd: Jan 17 2021 6:55 am
Regenbuien, Regen, Grotendeels bewolkt  
Regenbuien, Regen, Grotendeels bewolkt  
   Wind: Zuiden 7.4 km/h
Wind: Zuiden 7.4 km/h
Temperatuur: 0°C
Voelt als: -3°C
Dauwpunt: 0°C
Vochtigheid: 100%
Barometer: 1014 hPa
Bewolking: Grotendeels bewolkt
Zicht: 2 km
Bewolking: Grotendeels bewolkt 200 ft,
Licht bewolkt 1500 ft
EHDL 170555Z AUTO 18004KT 120V210 2100 SHRA BKN002 FEW015CB 00/00 Q1014 AMB
EHEH - Eindhoven Rnlafb, Netherlands
Afstand tot: ZW 48 km
Gewijzigd: Jan 17 2021 6:46 am
Wat regen mogelijk, Bewolking  
Wat regen mogelijk, Bewolking  
   Wind: ZW 11.1 km/h
Wind: ZW 11.1 km/h
Temperatuur: 1°C
Voelt als: -2°C
Dauwpunt: 1°C
Vochtigheid: 100%
Barometer: 1015 hPa
Bewolking: Bewolking
Zicht: 2 km
Bewolking: Grotendeels bewolkt 100 ft,
Bewolking 300 ft
EHEH 170546Z AUTO 22006KT 2100 -RA BKN001 OVC003 01/01 Q1015 RED TEMPO 1200 BR BKN001
EHGR - Gilze-Rijen Rnla, Netherlands
Afstand tot: WZW 70 km
Gewijzigd: Jan 17 2021 6:55 am
Nevel, Bewolking  
Nevel, Bewolking  
   Wind: WZW 7.4 km/h
Wind: WZW 7.4 km/h
Temperatuur: 2°C
Voelt als: 0°C
Dauwpunt: 2°C
Vochtigheid: 100%
Barometer: 1015 hPa
Bewolking: Bewolking
Zicht: 1 km
Bewolking: Licht bewolkt 100 ft,
Grotendeels bewolkt 1800 ft,
Bewolking 2200 ft
EHGR 170555Z AUTO 25004KT 1300 BR FEW001 BKN018 OVC022 02/02 Q1015 AMB
EBBL - Kleine-Brogel(Ba, Belgium
Afstand tot: ZZW 71 km
Gewijzigd: Jan 17 2021 6:25 am
Wat regen mogelijk, Bewolking  
Wat regen mogelijk, Bewolking  
   Wind: ZW 9.3 km/h
Wind: ZW 9.3 km/h
Temperatuur: 1°C
Voelt als: -2°C
Dauwpunt: 1°C
Vochtigheid: 100%
Barometer: 1015 hPa
Bewolking: Bewolking
Zicht: 2 km
Bewolking: Bewolking 200 ft
EBBL 170525Z AUTO 23005KT 2400 -RA OVC002/// 01/01 Q1015 AMB

Script ontwikkeld door  Saratoga-weather.org Aangepast voor de template door  Weerstation Leuven

U vindt ons ook hier:

UK Metoffice

WeatherCloud

AWEKAS

Apparatuur in gebruik:

Weerstation
Davis VP2

Weerprogramma
Weather Display

Webleverancier
WebReus.nl

Davis VP2

Weather Display

WebReus.nl


Weerstation-Wijk.nl. Voor het weer van Wijk bij Duurstede en omstreken